createdAt,value
2018-04-19T00:05:05.812Z,16.90
2018-04-19T00:08:07.288Z,17.00
2018-04-19T00:11:08.787Z,16.90
2018-04-19T00:14:10.971Z,16.60
2018-04-19T00:17:12.482Z,16.70
2018-04-19T00:20:14.006Z,16.80
2018-04-19T00:23:15.548Z,16.90
2018-04-19T00:26:17.064Z,16.80
2018-04-19T00:29:19.367Z,16.60
2018-04-19T00:32:21.661Z,16.70
2018-04-19T00:35:23.168Z,16.70
2018-04-19T00:38:24.856Z,16.70
2018-04-19T00:41:26.396Z,16.80
2018-04-19T00:44:27.978Z,16.80
2018-04-19T00:47:29.487Z,16.90
2018-04-19T00:50:31.032Z,16.70
2018-04-19T00:53:32.512Z,16.70
2018-04-19T00:56:35.796Z,16.40
2018-04-19T00:59:37.296Z,16.30
2018-04-19T01:02:38.833Z,16.30
2018-04-19T01:05:40.374Z,16.30
2018-04-19T01:08:41.904Z,16.20
2018-04-19T01:14:51.998Z,16.60
2018-04-19T01:17:54.204Z,16.40
2018-04-19T01:20:55.742Z,16.50
2018-04-19T01:23:58.077Z,16.40
2018-04-19T01:27:00.313Z,16.40
2018-04-19T01:30:01.797Z,16.20
2018-04-19T01:33:03.310Z,16.50
2018-04-19T01:36:24.142Z,16.20
2018-04-19T01:39:25.818Z,16.10
2018-04-19T01:42:27.489Z,16.20
2018-04-19T01:45:29.046Z,16.20
2018-04-19T01:48:31.341Z,16.10
2018-04-19T01:51:32.860Z,16.20
2018-04-19T01:54:34.380Z,16.10
2018-04-19T01:57:36.728Z,16.10
2018-04-19T02:00:38.955Z,16.10
2018-04-19T02:03:41.079Z,16.10
2018-04-19T02:06:42.707Z,16.00
2018-04-19T02:09:44.247Z,16.00
2018-04-19T02:12:45.747Z,15.80
2018-04-19T02:15:47.344Z,15.90
2018-04-19T02:18:50.166Z,15.90
2018-04-19T02:21:52.260Z,16.00
2018-04-19T02:24:53.965Z,16.00
2018-04-19T02:27:56.191Z,15.70
2018-04-19T02:30:57.747Z,15.80
2018-04-19T02:33:59.319Z,15.80
2018-04-19T02:37:00.805Z,15.60
2018-04-19T02:43:10.714Z,15.80
2018-04-19T02:46:12.229Z,15.90
2018-04-19T02:49:14.492Z,15.70
2018-04-19T02:52:16.815Z,15.70
2018-04-19T02:55:18.382Z,15.60
2018-04-19T02:58:20.769Z,15.50
2018-04-19T03:01:22.368Z,15.60
2018-04-19T03:04:23.910Z,15.50
2018-04-19T03:07:25.418Z,15.40
2018-04-19T03:10:26.946Z,15.70
2018-04-19T03:13:28.515Z,15.40
2018-04-19T03:16:30.065Z,15.40
2018-04-19T03:19:31.583Z,15.30
2018-04-19T03:22:33.185Z,15.30
2018-04-19T03:25:34.767Z,15.40
2018-04-19T03:28:37.116Z,15.30
2018-04-19T03:31:38.655Z,15.30
2018-04-19T03:34:40.923Z,15.30
2018-04-19T03:37:43.196Z,15.20
2018-04-19T03:40:44.746Z,15.20
2018-04-19T03:43:47.018Z,15.30
2018-04-19T03:46:48.539Z,15.20
2018-04-19T03:49:50.836Z,15.10
2018-04-19T03:52:53.068Z,15.10
2018-04-19T03:55:54.573Z,15.10
2018-04-19T03:58:56.050Z,15.10
2018-04-19T04:01:57.631Z,15.10
2018-04-19T04:04:59.977Z,15.00
2018-04-19T04:08:01.537Z,14.70
2018-04-19T04:11:03.087Z,15.00
2018-04-19T04:14:04.628Z,15.00
2018-04-19T04:17:25.376Z,15.00
2018-04-19T04:20:45.392Z,14.90
2018-04-19T04:23:50.934Z,14.90
2018-04-19T04:26:53.572Z,15.00
2018-04-19T04:29:55.137Z,15.00
2018-04-19T04:32:56.967Z,14.90
2018-04-19T04:35:59.263Z,14.70
2018-04-19T04:39:01.559Z,14.70
2018-04-19T04:42:05.849Z,14.70
2018-04-19T04:45:08.136Z,14.70
2018-04-19T04:48:09.657Z,14.70
2018-04-19T04:51:11.171Z,14.80
2018-04-19T04:54:12.690Z,14.80
2018-04-19T04:57:14.175Z,14.80
2018-04-19T05:00:15.654Z,14.90
2018-04-19T05:03:17.201Z,14.90
2018-04-19T05:06:18.849Z,14.80
2018-04-19T05:09:20.399Z,14.60
2018-04-19T05:12:22.374Z,14.70
2018-04-19T05:15:30.540Z,14.70
2018-04-19T05:18:32.102Z,14.80
2018-04-19T05:21:34.493Z,15.10
2018-04-19T05:24:36.804Z,15.10
2018-04-19T05:27:38.385Z,15.10
2018-04-19T05:30:39.894Z,15.10
2018-04-19T05:33:41.391Z,15.20
2018-04-19T05:36:42.990Z,15.10
2018-04-19T05:39:44.524Z,15.10
2018-04-19T05:42:46.803Z,15.20
2018-04-19T05:45:49.136Z,15.20
2018-04-19T05:48:50.769Z,15.20
2018-04-19T05:51:53.083Z,15.40
2018-04-19T05:54:54.621Z,15.40
2018-04-19T05:57:56.939Z,15.60
2018-04-19T06:00:58.503Z,15.50
2018-04-19T06:04:01.276Z,15.60
2018-04-19T06:07:03.912Z,15.70
2018-04-19T06:10:07.040Z,15.70
2018-04-19T06:13:10.707Z,15.70
2018-04-19T06:16:13.401Z,15.80
2018-04-19T06:19:15.033Z,15.70
2018-04-19T06:22:16.680Z,15.80
2018-04-19T06:25:19.088Z,16.00
2018-04-19T06:28:21.645Z,15.80
2018-04-19T06:31:27.078Z,15.90
2018-04-19T06:34:28.547Z,15.80
2018-04-19T06:37:30.124Z,15.90
2018-04-19T06:40:31.613Z,16.00
2018-04-19T06:43:33.307Z,15.90
2018-04-19T06:46:34.857Z,16.00
2018-04-19T06:49:36.491Z,16.00
2018-04-19T06:52:38.809Z,16.10
2018-04-19T06:55:41.130Z,16.20
2018-04-19T06:58:42.753Z,16.20
2018-04-19T07:02:15.523Z,16.20
2018-04-19T07:08:27.240Z,16.40
2018-04-19T07:11:29.007Z,16.40
2018-04-19T07:14:30.588Z,16.60
2018-04-19T07:17:34.426Z,16.70
2018-04-19T07:20:35.933Z,16.80
2018-04-19T07:23:39.542Z,17.70
2018-04-19T07:40:52.792Z,18.10
2018-04-19T07:43:55.000Z,18.00
2018-04-19T07:46:56.923Z,18.30
2018-04-19T07:50:04.786Z,18.60
2018-04-19T07:53:09.700Z,18.60
2018-04-19T07:56:13.334Z,18.90
2018-04-19T07:59:16.177Z,18.80
2018-04-19T08:02:20.029Z,18.70
2018-04-19T08:05:23.456Z,19.00
2018-04-19T08:08:28.027Z,19.10
2018-04-19T08:11:32.371Z,19.30
2018-04-19T08:14:36.007Z,19.40
2018-04-19T08:17:41.507Z,19.50
2018-04-19T08:20:50.317Z,19.90
2018-04-19T08:23:55.887Z,20.00
2018-04-19T08:38:45.098Z,20.50
2018-04-19T08:41:54.907Z,20.70
2018-04-19T08:45:06.059Z,20.70
2018-04-19T08:48:57.173Z,20.80
2018-04-19T08:52:05.891Z,20.80
2018-04-19T08:55:20.766Z,21.00
2018-04-19T08:58:30.467Z,21.30
2018-04-19T09:05:00.580Z,21.60
2018-04-19T09:08:19.549Z,21.80
2018-04-19T09:11:36.612Z,21.90
2018-04-19T13:53:06.902Z,29.80
2018-04-19T13:56:08.492Z,29.40
2018-04-19T13:59:09.974Z,29.10
2018-04-19T14:02:11.627Z,28.70
2018-04-19T14:05:13.803Z,28.40
2018-04-19T14:08:15.361Z,28.40
2018-04-19T14:11:16.833Z,28.40
2018-04-19T14:14:18.376Z,28.30
2018-04-19T14:17:19.889Z,28.40
2018-04-19T14:20:21.367Z,28.40
2018-04-19T14:23:23.641Z,28.40
2018-04-19T14:26:25.169Z,28.40
2018-04-19T14:29:27.406Z,28.50
2018-04-19T14:32:56.790Z,28.50
2018-04-19T14:40:10.186Z,28.50
2018-04-19T14:44:07.864Z,28.60
2018-04-19T14:47:35.835Z,28.50
2018-04-19T14:51:04.751Z,28.40
2018-04-19T14:54:26.725Z,28.50
2018-04-19T14:57:47.040Z,28.50
2018-04-19T16:01:13.604Z,27.30
2018-04-19T16:04:15.047Z,27.60
2018-04-19T16:07:16.493Z,27.60
2018-04-19T16:10:18.782Z,27.30
2018-04-19T16:13:20.999Z,27.20
2018-04-19T16:16:22.463Z,27.20
2018-04-19T16:19:23.899Z,27.20
2018-04-19T16:22:26.151Z,27.00
2018-04-19T16:25:27.685Z,27.20
2018-04-19T16:28:29.189Z,26.90
2018-04-19T16:31:30.693Z,26.80
2018-04-19T16:34:32.878Z,26.70
2018-04-19T16:37:35.088Z,26.60
2018-04-19T16:40:36.563Z,26.60
2018-04-19T16:43:37.998Z,26.40
2018-04-19T16:46:40.232Z,26.40
2018-04-19T16:49:41.667Z,26.40
2018-04-19T16:52:43.111Z,26.30
2018-04-19T16:55:44.586Z,26.40
2018-04-19T16:58:46.046Z,26.30
2018-04-19T17:01:48.249Z,26.30
2018-04-19T17:04:50.484Z,26.20
2018-04-19T17:07:51.986Z,26.20
2018-04-19T17:10:54.196Z,25.90
2018-04-19T17:13:55.734Z,26.10
2018-04-19T17:16:57.255Z,26.10
2018-04-19T17:19:58.800Z,25.70
2018-04-19T17:23:00.294Z,25.70
2018-04-19T17:26:01.779Z,25.60
2018-04-19T17:29:03.283Z,25.50
2018-04-19T17:32:04.805Z,25.20
2018-04-19T17:35:06.298Z,25.00
2018-04-19T17:38:07.786Z,25.20
2018-04-19T17:41:10.511Z,25.00
2018-04-19T17:44:12.040Z,25.00
2018-04-19T17:47:13.522Z,24.90
2018-04-19T17:50:14.989Z,24.90
2018-04-19T17:53:17.223Z,24.30
2018-04-19T17:56:18.741Z,24.10
2018-04-19T17:59:20.304Z,23.90
2018-04-19T18:02:21.767Z,24.00
2018-04-19T18:05:23.229Z,23.70
2018-04-19T18:08:24.671Z,23.60
2018-04-19T18:11:26.129Z,23.70
2018-04-19T18:14:27.570Z,23.30
2018-04-19T18:17:29.738Z,23.20
2018-04-19T18:20:31.185Z,23.20
2018-04-19T18:23:32.818Z,23.00
2018-04-19T18:26:34.406Z,23.00
2018-04-19T18:29:35.915Z,22.80
2018-04-19T18:32:37.341Z,23.00
2018-04-19T18:35:38.743Z,23.00
2018-04-19T18:38:40.237Z,22.90
2018-04-19T18:41:42.378Z,22.70
2018-04-19T18:44:43.858Z,22.60
2018-04-19T18:47:45.323Z,22.70
2018-04-19T18:50:46.918Z,22.60
2018-04-19T18:53:54.470Z,22.70
2018-04-19T18:56:56.874Z,22.50
2018-04-19T19:00:01.571Z,22.50
2018-04-19T19:03:04.268Z,22.20
2018-04-19T19:06:06.440Z,22.10
2018-04-19T19:09:07.893Z,22.10
2018-04-19T19:12:10.077Z,22.00
2018-04-19T19:19:37.219Z,22.00
2018-04-19T19:22:39.736Z,21.60
2018-04-19T19:25:41.475Z,21.60
2018-04-19T19:28:43.170Z,21.60
2018-04-19T19:31:45.293Z,21.40
2018-04-19T19:34:47.471Z,21.40
2018-04-19T19:37:49.060Z,21.40
2018-04-19T19:40:51.128Z,21.10
2018-04-19T19:43:53.388Z,21.30
2018-04-19T19:46:55.554Z,21.50
2018-04-19T19:49:57.167Z,21.30
2018-04-19T19:52:59.211Z,21.00
2018-04-19T19:56:01.833Z,21.00
2018-04-19T19:59:03.419Z,21.00
2018-04-19T20:02:05.488Z,21.00
2018-04-19T20:05:07.457Z,20.90
2018-04-19T20:08:10.151Z,20.80
2018-04-19T20:11:12.957Z,20.90
2018-04-19T20:14:14.698Z,20.80
2018-04-19T20:17:16.664Z,20.50
2018-04-19T20:20:18.571Z,20.50
2018-04-19T20:23:20.196Z,20.50
2018-04-19T20:26:23.143Z,20.40
2018-04-19T20:29:26.521Z,20.30
2018-04-19T20:32:28.188Z,20.30
2018-04-19T20:35:29.663Z,20.30
2018-04-19T20:38:31.202Z,20.50
2018-04-19T20:45:06.167Z,20.30
2018-04-19T20:48:10.453Z,20.10
2018-04-19T20:51:12.740Z,19.90
2018-04-19T20:54:14.379Z,19.80
2018-04-19T20:57:15.870Z,19.80
2018-04-19T21:00:17.414Z,19.70
2018-04-19T21:03:19.651Z,19.80
2018-04-19T21:06:21.221Z,19.70
2018-04-19T21:09:22.771Z,19.60
2018-04-19T21:12:24.380Z,19.80
2018-04-19T21:15:25.860Z,19.80
2018-04-19T21:18:27.441Z,19.50
2018-04-19T21:21:30.077Z,19.70
2018-04-19T21:24:31.639Z,19.80
2018-04-19T21:27:33.313Z,19.60
2018-04-19T21:30:34.849Z,19.50
2018-04-19T21:33:37.132Z,19.60
2018-04-19T21:36:38.732Z,19.50
2018-04-19T21:39:40.299Z,19.70
2018-04-19T21:42:42.150Z,19.60
2018-04-19T21:45:44.975Z,19.50
2018-04-19T21:48:46.511Z,19.50
2018-04-19T21:51:48.909Z,19.60
2018-04-19T21:54:51.137Z,19.60
2018-04-19T21:57:52.752Z,19.70
2018-04-19T22:00:55.118Z,19.70
2018-04-19T22:03:56.647Z,19.70
2018-04-19T22:06:58.208Z,19.70
2018-04-19T22:10:00.431Z,19.80
2018-04-19T22:13:01.900Z,19.80
2018-04-19T22:16:03.337Z,19.90
2018-04-19T22:19:05.791Z,19.50
2018-04-19T22:22:07.315Z,19.50
2018-04-19T22:25:08.820Z,19.60
2018-04-19T22:28:10.318Z,19.40
2018-04-19T22:31:12.487Z,19.60
2018-04-19T22:34:14.004Z,19.50
2018-04-19T22:37:16.616Z,19.70
2018-04-19T22:40:20.980Z,19.70
2018-04-19T22:43:26.760Z,19.70
2018-04-19T22:46:28.317Z,19.60
2018-04-19T22:49:30.165Z,19.50
2018-04-19T22:52:31.871Z,19.60
2018-04-19T22:55:34.443Z,19.50
2018-04-19T22:58:36.054Z,19.40
2018-04-19T23:01:39.504Z,19.40
2018-04-19T23:04:43.483Z,19.30
2018-04-19T23:07:46.246Z,19.30
2018-04-19T23:10:50.207Z,19.30
2018-04-19T23:13:53.595Z,19.50
2018-04-19T23:16:57.173Z,19.50
2018-04-19T23:20:00.041Z,19.40
2018-04-19T23:23:02.269Z,19.40
2018-04-19T23:26:04.943Z,19.10
2018-04-19T23:29:07.993Z,19.10
2018-04-19T23:32:09.627Z,19.20
2018-04-19T23:35:11.979Z,19.00
2018-04-19T23:38:13.516Z,19.00
2018-04-19T23:41:15.592Z,19.20
2018-04-19T23:44:17.318Z,19.00
2018-04-19T23:47:19.731Z,18.80
2018-04-19T23:50:22.004Z,18.90
2018-04-19T23:53:23.526Z,18.90
2018-04-19T23:56:25.014Z,18.70
2018-04-19T23:59:26.535Z,18.70
